sensor_id;sensor_type;location;lat;lon;timestamp;P1;durP1;ratioP1;P2;durP2;ratioP2
67272;SDS011;54190;49.770;9.250;2023-07-20T00:01:40;10.73;;;5.23;;
67272;SDS011;54190;49.770;9.250;2023-07-20T00:04:10;7.57;;;4.50;;
67272;SDS011;54190;49.770;9.250;2023-07-20T00:06:39;8.80;;;4.80;;
67272;SDS011;54190;49.770;9.250;2023-07-20T00:09:05;6.50;;;4.47;;
67272;SDS011;54190;49.770;9.250;2023-07-20T00:11:31;11.33;;;4.70;;
67272;SDS011;54190;49.770;9.250;2023-07-20T00:14:01;13.23;;;4.87;;
67272;SDS011;54190;49.770;9.250;2023-07-20T00:16:27;9.80;;;4.23;;
67272;SDS011;54190;49.770;9.250;2023-07-20T00:18:53;7.60;;;4.30;;
67272;SDS011;54190;49.770;9.250;2023-07-20T00:21:18;10.30;;;4.60;;
67272;SDS011;54190;49.770;9.250;2023-07-20T00:23:45;13.33;;;4.30;;
67272;SDS011;54190;49.770;9.250;2023-07-20T00:26:10;17.17;;;4.90;;
67272;SDS011;54190;49.770;9.250;2023-07-20T00:28:36;20.77;;;5.20;;
67272;SDS011;54190;49.770;9.250;2023-07-20T00:31:01;25.10;;;5.97;;
67272;SDS011;54190;49.770;9.250;2023-07-20T00:33:28;14.90;;;5.30;;
67272;SDS011;54190;49.770;9.250;2023-07-20T00:35:54;18.00;;;5.17;;
67272;SDS011;54190;49.770;9.250;2023-07-20T00:38:19;12.47;;;4.63;;
67272;SDS011;54190;49.770;9.250;2023-07-20T00:40:47;8.80;;;4.67;;
67272;SDS011;54190;49.770;9.250;2023-07-20T00:43:16;10.03;;;4.00;;
67272;SDS011;54190;49.770;9.250;2023-07-20T00:45:42;13.00;;;4.90;;
67272;SDS011;54190;49.770;9.250;2023-07-20T00:48:09;15.90;;;4.93;;
67272;SDS011;54190;49.770;9.250;2023-07-20T00:50:35;24.57;;;5.27;;
67272;SDS011;54190;49.770;9.250;2023-07-20T00:53:01;19.30;;;4.83;;
67272;SDS011;54190;49.770;9.250;2023-07-20T00:55:31;18.50;;;6.17;;
67272;SDS011;54190;49.770;9.250;2023-07-20T00:57:57;17.40;;;5.30;;
67272;SDS011;54190;49.770;9.250;2023-07-20T01:00:24;14.13;;;5.30;;
67272;SDS011;54190;49.770;9.250;2023-07-20T01:02:50;11.07;;;4.40;;
67272;SDS011;54190;49.770;9.250;2023-07-20T01:05:17;12.70;;;4.53;;
67272;SDS011;54190;49.770;9.250;2023-07-20T01:07:46;18.07;;;5.17;;
67272;SDS011;54190;49.770;9.250;2023-07-20T01:10:44;20.13;;;5.90;;
67272;SDS011;54190;49.770;9.250;2023-07-20T01:13:16;21.83;;;4.90;;
67272;SDS011;54190;49.770;9.250;2023-07-20T01:15:48;7.90;;;3.90;;
67272;SDS011;54190;49.770;9.250;2023-07-20T01:18:15;10.60;;;4.20;;
67272;SDS011;54190;49.770;9.250;2023-07-20T01:20:41;8.73;;;4.10;;
67272;SDS011;54190;49.770;9.250;2023-07-20T01:29:03;12.40;;;4.20;;
67272;SDS011;54190;49.770;9.250;2023-07-20T01:31:40;14.17;;;4.40;;
67272;SDS011;54190;49.770;9.250;2023-07-20T01:34:07;10.90;;;4.23;;
67272;SDS011;54190;49.770;9.250;2023-07-20T01:36:35;8.47;;;4.20;;
67272;SDS011;54190;49.770;9.250;2023-07-20T01:39:02;12.00;;;4.30;;
67272;SDS011;54190;49.770;9.250;2023-07-20T01:41:29;15.63;;;4.60;;
67272;SDS011;54190;49.770;9.250;2023-07-20T01:43:59;14.33;;;4.10;;
67272;SDS011;54190;49.770;9.250;2023-07-20T01:46:25;15.33;;;4.40;;
67272;SDS011;54190;49.770;9.250;2023-07-20T01:48:50;15.07;;;4.53;;
67272;SDS011;54190;49.770;9.250;2023-07-20T01:51:16;15.37;;;4.70;;
67272;SDS011;54190;49.770;9.250;2023-07-20T01:53:43;11.23;;;4.50;;
67272;SDS011;54190;49.770;9.250;2023-07-20T01:56:09;15.23;;;4.47;;
67272;SDS011;54190;49.770;9.250;2023-07-20T01:58:37;13.43;;;3.90;;
67272;SDS011;54190;49.770;9.250;2023-07-20T02:01:03;12.03;;;4.17;;
67272;SDS011;54190;49.770;9.250;2023-07-20T02:03:29;13.10;;;4.10;;
67272;SDS011;54190;49.770;9.250;2023-07-20T02:05:55;8.77;;;3.63;;
67272;SDS011;54190;49.770;9.250;2023-07-20T02:08:22;12.20;;;3.87;;
67272;SDS011;54190;49.770;9.250;2023-07-20T02:10:48;9.83;;;3.97;;
67272;SDS011;54190;49.770;9.250;2023-07-20T02:13:14;15.30;;;4.53;;
67272;SDS011;54190;49.770;9.250;2023-07-20T02:15:40;12.73;;;4.10;;
67272;SDS011;54190;49.770;9.250;2023-07-20T02:18:07;9.80;;;3.73;;
67272;SDS011;54190;49.770;9.250;2023-07-20T02:20:33;8.37;;;4.43;;
67272;SDS011;54190;49.770;9.250;2023-07-20T02:22:59;13.20;;;4.33;;
67272;SDS011;54190;49.770;9.250;2023-07-20T02:25:25;18.70;;;4.50;;
67272;SDS011;54190;49.770;9.250;2023-07-20T02:27:51;16.67;;;4.10;;
67272;SDS011;54190;49.770;9.250;2023-07-20T02:30:17;11.10;;;3.70;;
67272;SDS011;54190;49.770;9.250;2023-07-20T02:32:43;7.17;;;3.83;;
67272;SDS011;54190;49.770;9.250;2023-07-20T02:35:14;10.50;;;4.37;;
67272;SDS011;54190;49.770;9.250;2023-07-20T02:37:40;10.90;;;3.63;;
67272;SDS011;54190;49.770;9.250;2023-07-20T02:40:06;11.23;;;3.47;;
67272;SDS011;54190;49.770;9.250;2023-07-20T02:42:32;13.43;;;3.90;;
67272;SDS011;54190;49.770;9.250;2023-07-20T02:44:58;9.70;;;4.10;;
67272;SDS011;54190;49.770;9.250;2023-07-20T02:47:24;7.80;;;3.37;;
67272;SDS011;54190;49.770;9.250;2023-07-20T02:49:50;11.83;;;4.40;;
67272;SDS011;54190;49.770;9.250;2023-07-20T02:52:16;12.50;;;3.90;;
67272;SDS011;54190;49.770;9.250;2023-07-20T02:54:41;13.10;;;4.17;;
67272;SDS011;54190;49.770;9.250;2023-07-20T02:57:07;9.83;;;3.83;;
67272;SDS011;54190;49.770;9.250;2023-07-20T02:59:33;12.80;;;3.83;;
67272;SDS011;54190;49.770;9.250;2023-07-20T03:01:58;12.10;;;4.70;;
67272;SDS011;54190;49.770;9.250;2023-07-20T03:04:27;11.10;;;3.50;;
67272;SDS011;54190;49.770;9.250;2023-07-20T03:06:53;7.30;;;3.73;;
67272;SDS011;54190;49.770;9.250;2023-07-20T03:09:19;5.60;;;3.90;;
67272;SDS011;54190;49.770;9.250;2023-07-20T03:11:44;5.30;;;3.70;;
67272;SDS011;54190;49.770;9.250;2023-07-20T03:14:11;9.50;;;4.13;;
67272;SDS011;54190;49.770;9.250;2023-07-20T03:16:37;12.50;;;3.80;;
67272;SDS011;54190;49.770;9.250;2023-07-20T03:19:03;20.47;;;4.37;;
67272;SDS011;54190;49.770;9.250;2023-07-20T03:21:29;10.40;;;4.40;;
67272;SDS011;54190;49.770;9.250;2023-07-20T03:23:55;15.50;;;4.10;;
67272;SDS011;54190;49.770;9.250;2023-07-20T03:26:22;15.03;;;4.00;;
67272;SDS011;54190;49.770;9.250;2023-07-20T03:28:48;13.73;;;4.47;;
67272;SDS011;54190;49.770;9.250;2023-07-20T03:31:14;10.83;;;4.60;;
67272;SDS011;54190;49.770;9.250;2023-07-20T03:33:40;11.43;;;3.70;;
67272;SDS011;54190;49.770;9.250;2023-07-20T03:36:06;11.93;;;4.00;;
67272;SDS011;54190;49.770;9.250;2023-07-20T03:38:32;10.97;;;4.30;;
67272;SDS011;54190;49.770;9.250;2023-07-20T03:40:58;9.20;;;4.13;;
67272;SDS011;54190;49.770;9.250;2023-07-20T03:43:25;13.03;;;4.20;;
67272;SDS011;54190;49.770;9.250;2023-07-20T03:45:52;15.43;;;4.57;;
67272;SDS011;54190;49.770;9.250;2023-07-20T03:48:20;16.80;;;5.00;;
67272;SDS011;54190;49.770;9.250;2023-07-20T03:50:47;13.43;;;4.27;;
67272;SDS011;54190;49.770;9.250;2023-07-20T03:53:14;15.67;;;4.90;;
67272;SDS011;54190;49.770;9.250;2023-07-20T03:55:50;9.67;;;4.50;;
67272;SDS011;54190;49.770;9.250;2023-07-20T03:58:17;17.33;;;4.90;;
67272;SDS011;54190;49.770;9.250;2023-07-20T04:00:47;14.43;;;4.90;;
67272;SDS011;54190;49.770;9.250;2023-07-20T04:03:15;15.83;;;4.70;;
67272;SDS011;54190;49.770;9.250;2023-07-20T04:05:41;15.90;;;5.30;;
67272;SDS011;54190;49.770;9.250;2023-07-20T04:08:08;9.00;;;4.40;;
67272;SDS011;54190;49.770;9.250;2023-07-20T04:10:36;7.97;;;4.10;;
67272;SDS011;54190;49.770;9.250;2023-07-20T04:13:02;12.20;;;4.60;;
67272;SDS011;54190;49.770;9.250;2023-07-20T04:15:28;14.80;;;3.77;;
67272;SDS011;54190;49.770;9.250;2023-07-20T04:17:53;15.13;;;4.40;;
67272;SDS011;54190;49.770;9.250;2023-07-20T04:20:20;6.20;;;3.83;;
67272;SDS011;54190;49.770;9.250;2023-07-20T04:22:47;8.43;;;3.63;;
67272;SDS011;54190;49.770;9.250;2023-07-20T04:25:14;6.17;;;3.90;;
67272;SDS011;54190;49.770;9.250;2023-07-20T04:27:40;6.70;;;4.23;;
67272;SDS011;54190;49.770;9.250;2023-07-20T04:30:07;9.70;;;3.80;;
67272;SDS011;54190;49.770;9.250;2023-07-20T04:32:34;6.53;;;3.63;;
67272;SDS011;54190;49.770;9.250;2023-07-20T04:35:05;5.13;;;3.67;;
67272;SDS011;54190;49.770;9.250;2023-07-20T04:37:31;7.10;;;3.53;;
67272;SDS011;54190;49.770;9.250;2023-07-20T04:39:59;10.90;;;3.70;;
67272;SDS011;54190;49.770;9.250;2023-07-20T04:42:24;13.13;;;5.00;;
67272;SDS011;54190;49.770;9.250;2023-07-20T04:44:50;9.83;;;4.50;;
67272;SDS011;54190;49.770;9.250;2023-07-20T04:47:16;11.03;;;4.33;;
67272;SDS011;54190;49.770;9.250;2023-07-20T04:49:41;8.40;;;4.10;;
67272;SDS011;54190;49.770;9.250;2023-07-20T04:52:07;8.83;;;4.00;;
67272;SDS011;54190;49.770;9.250;2023-07-20T04:54:33;8.97;;;3.90;;
67272;SDS011;54190;49.770;9.250;2023-07-20T04:56:58;8.23;;;4.07;;
67272;SDS011;54190;49.770;9.250;2023-07-20T04:59:24;6.13;;;3.57;;
67272;SDS011;54190;49.770;9.250;2023-07-20T05:01:50;12.40;;;4.27;;
67272;SDS011;54190;49.770;9.250;2023-07-20T05:04:16;13.67;;;4.70;;
67272;SDS011;54190;49.770;9.250;2023-07-20T05:06:42;9.20;;;4.23;;
67272;SDS011;54190;49.770;9.250;2023-07-20T05:09:08;11.93;;;4.23;;
67272;SDS011;54190;49.770;9.250;2023-07-20T05:11:34;17.87;;;4.60;;
67272;SDS011;54190;49.770;9.250;2023-07-20T05:14:00;16.00;;;5.13;;
67272;SDS011;54190;49.770;9.250;2023-07-20T05:16:27;9.93;;;4.40;;
67272;SDS011;54190;49.770;9.250;2023-07-20T05:18:55;11.23;;;4.40;;
67272;SDS011;54190;49.770;9.250;2023-07-20T05:21:22;8.23;;;4.37;;
67272;SDS011;54190;49.770;9.250;2023-07-20T05:23:48;7.90;;;4.67;;
67272;SDS011;54190;49.770;9.250;2023-07-20T05:26:14;6.63;;;4.60;;
67272;SDS011;54190;49.770;9.250;2023-07-20T05:28:39;9.60;;;5.10;;
67272;SDS011;54190;49.770;9.250;2023-07-20T05:31:05;7.83;;;4.70;;
67272;SDS011;54190;49.770;9.250;2023-07-20T05:33:31;8.00;;;4.70;;
67272;SDS011;54190;49.770;9.250;2023-07-20T05:35:57;7.10;;;4.20;;
67272;SDS011;54190;49.770;9.250;2023-07-20T05:38:22;7.30;;;4.43;;
67272;SDS011;54190;49.770;9.250;2023-07-20T05:40:48;7.10;;;4.33;;
67272;SDS011;54190;49.770;9.250;2023-07-20T05:43:14;8.10;;;4.70;;
67272;SDS011;54190;49.770;9.250;2023-07-20T05:45:43;7.17;;;4.03;;
67272;SDS011;54190;49.770;9.250;2023-07-20T05:48:10;6.27;;;4.57;;
67272;SDS011;54190;49.770;9.250;2023-07-20T05:50:37;11.20;;;4.97;;
67272;SDS011;54190;49.770;9.250;2023-07-20T05:53:03;5.80;;;3.33;;
67272;SDS011;54190;49.770;9.250;2023-07-20T05:55:29;8.33;;;4.30;;
67272;SDS011;54190;49.770;9.250;2023-07-20T05:57:54;7.97;;;3.77;;
67272;SDS011;54190;49.770;9.250;2023-07-20T06:00:21;5.87;;;3.70;;
67272;SDS011;54190;49.770;9.250;2023-07-20T06:02:52;9.60;;;4.00;;
67272;SDS011;54190;49.770;9.250;2023-07-20T06:05:18;5.30;;;3.40;;
67272;SDS011;54190;49.770;9.250;2023-07-20T06:07:46;7.57;;;4.10;;
67272;SDS011;54190;49.770;9.250;2023-07-20T06:10:11;7.17;;;3.57;;
67272;SDS011;54190;49.770;9.250;2023-07-20T06:12:37;7.90;;;3.90;;
67272;SDS011;54190;49.770;9.250;2023-07-20T06:15:03;6.47;;;3.53;;
67272;SDS011;54190;49.770;9.250;2023-07-20T06:17:30;5.37;;;3.80;;
67272;SDS011;54190;49.770;9.250;2023-07-20T06:19:55;5.37;;;3.37;;
67272;SDS011;54190;49.770;9.250;2023-07-20T06:22:21;8.90;;;4.23;;
67272;SDS011;54190;49.770;9.250;2023-07-20T06:24:47;4.87;;;3.40;;
67272;SDS011;54190;49.770;9.250;2023-07-20T06:27:12;7.20;;;3.67;;
67272;SDS011;54190;49.770;9.250;2023-07-20T06:29:38;7.30;;;3.40;;
67272;SDS011;54190;49.770;9.250;2023-07-20T06:32:04;6.27;;;3.80;;
67272;SDS011;54190;49.770;9.250;2023-07-20T06:34:30;7.47;;;4.17;;
67272;SDS011;54190;49.770;9.250;2023-07-20T06:36:56;9.80;;;3.43;;
67272;SDS011;54190;49.770;9.250;2023-07-20T06:39:21;5.50;;;3.03;;
67272;SDS011;54190;49.770;9.250;2023-07-20T06:41:47;7.17;;;3.50;;
67272;SDS011;54190;49.770;9.250;2023-07-20T06:44:13;7.60;;;3.60;;
67272;SDS011;54190;49.770;9.250;2023-07-20T06:46:39;7.90;;;3.80;;
67272;SDS011;54190;49.770;9.250;2023-07-20T06:49:07;5.47;;;3.70;;
67272;SDS011;54190;49.770;9.250;2023-07-20T06:51:33;6.03;;;3.47;;
67272;SDS011;54190;49.770;9.250;2023-07-20T06:53:59;5.20;;;3.13;;
67272;SDS011;54190;49.770;9.250;2023-07-20T06:56:24;8.50;;;3.07;;
67272;SDS011;54190;49.770;9.250;2023-07-20T06:58:50;7.20;;;3.70;;
67272;SDS011;54190;49.770;9.250;2023-07-20T07:01:15;9.77;;;3.27;;
67272;SDS011;54190;49.770;9.250;2023-07-20T07:03:42;8.63;;;3.20;;
67272;SDS011;54190;49.770;9.250;2023-07-20T07:06:08;13.10;;;2.77;;
67272;SDS011;54190;49.770;9.250;2023-07-20T07:08:35;6.97;;;3.27;;
67272;SDS011;54190;49.770;9.250;2023-07-20T07:11:01;11.03;;;4.03;;
67272;SDS011;54190;49.770;9.250;2023-07-20T07:13:26;6.80;;;3.30;;
67272;SDS011;54190;49.770;9.250;2023-07-20T07:15:52;7.10;;;3.50;;
67272;SDS011;54190;49.770;9.250;2023-07-20T07:18:18;7.17;;;3.30;;
67272;SDS011;54190;49.770;9.250;2023-07-20T07:20:51;6.03;;;3.10;;
67272;SDS011;54190;49.770;9.250;2023-07-20T07:23:17;5.63;;;3.97;;
67272;SDS011;54190;49.770;9.250;2023-07-20T07:25:43;6.23;;;3.20;;
67272;SDS011;54190;49.770;9.250;2023-07-20T07:28:09;4.47;;;3.03;;
67272;SDS011;54190;49.770;9.250;2023-07-20T07:30:35;8.23;;;3.13;;
67272;SDS011;54190;49.770;9.250;2023-07-20T07:33:00;5.70;;;3.07;;
67272;SDS011;54190;49.770;9.250;2023-07-20T07:35:26;6.83;;;3.10;;
67272;SDS011;54190;49.770;9.250;2023-07-20T07:37:51;4.43;;;2.83;;
67272;SDS011;54190;49.770;9.250;2023-07-20T07:40:17;4.43;;;2.60;;
67272;SDS011;54190;49.770;9.250;2023-07-20T07:42:43;6.30;;;3.30;;
67272;SDS011;54190;49.770;9.250;2023-07-20T07:45:09;5.13;;;2.87;;
67272;SDS011;54190;49.770;9.250;2023-07-20T07:47:35;4.50;;;2.80;;
67272;SDS011;54190;49.770;9.250;2023-07-20T07:50:01;7.20;;;3.33;;
67272;SDS011;54190;49.770;9.250;2023-07-20T07:52:27;6.20;;;2.90;;
67272;SDS011;54190;49.770;9.250;2023-07-20T07:54:52;4.60;;;3.20;;
67272;SDS011;54190;49.770;9.250;2023-07-20T07:57:18;7.07;;;3.50;;
67272;SDS011;54190;49.770;9.250;2023-07-20T07:59:43;5.60;;;2.80;;
67272;SDS011;54190;49.770;9.250;2023-07-20T08:02:09;8.03;;;3.10;;
67272;SDS011;54190;49.770;9.250;2023-07-20T08:04:35;6.93;;;2.70;;
67272;SDS011;54190;49.770;9.250;2023-07-20T08:07:02;6.17;;;3.33;;
67272;SDS011;54190;49.770;9.250;2023-07-20T08:09:28;3.33;;;2.50;;
67272;SDS011;54190;49.770;9.250;2023-07-20T08:11:54;6.57;;;3.50;;
67272;SDS011;54190;49.770;9.250;2023-07-20T08:14:20;8.70;;;3.20;;
67272;SDS011;54190;49.770;9.250;2023-07-20T08:16:45;4.90;;;2.87;;
67272;SDS011;54190;49.770;9.250;2023-07-20T08:19:12;4.07;;;2.80;;
67272;SDS011;54190;49.770;9.250;2023-07-20T08:21:38;6.10;;;3.20;;
67272;SDS011;54190;49.770;9.250;2023-07-20T08:24:03;4.87;;;2.67;;
67272;SDS011;54190;49.770;9.250;2023-07-20T08:26:29;5.20;;;3.40;;
67272;SDS011;54190;49.770;9.250;2023-07-20T08:28:55;5.43;;;3.20;;
67272;SDS011;54190;49.770;9.250;2023-07-20T08:31:21;5.50;;;3.03;;
67272;SDS011;54190;49.770;9.250;2023-07-20T08:33:47;4.03;;;2.60;;
67272;SDS011;54190;49.770;9.250;2023-07-20T08:36:13;6.63;;;3.20;;
67272;SDS011;54190;49.770;9.250;2023-07-20T08:38:39;5.50;;;3.30;;
67272;SDS011;54190;49.770;9.250;2023-07-20T08:41:05;6.00;;;2.93;;
67272;SDS011;54190;49.770;9.250;2023-07-20T08:43:30;5.43;;;3.37;;
67272;SDS011;54190;49.770;9.250;2023-07-20T08:45:57;5.30;;;2.60;;
67272;SDS011;54190;49.770;9.250;2023-07-20T08:48:24;8.80;;;2.80;;
67272;SDS011;54190;49.770;9.250;2023-07-20T08:50:50;4.73;;;2.87;;
67272;SDS011;54190;49.770;9.250;2023-07-20T08:53:18;5.23;;;2.90;;
67272;SDS011;54190;49.770;9.250;2023-07-20T08:55:45;7.07;;;2.57;;
67272;SDS011;54190;49.770;9.250;2023-07-20T08:58:13;4.60;;;2.60;;
67272;SDS011;54190;49.770;9.250;2023-07-20T09:00:41;9.70;;;3.53;;
67272;SDS011;54190;49.770;9.250;2023-07-20T09:03:06;8.07;;;2.77;;
67272;SDS011;54190;49.770;9.250;2023-07-20T09:05:33;6.13;;;3.03;;
67272;SDS011;54190;49.770;9.250;2023-07-20T09:08:00;5.00;;;3.10;;
67272;SDS011;54190;49.770;9.250;2023-07-20T09:10:28;4.17;;;3.17;;
67272;SDS011;54190;49.770;9.250;2023-07-20T09:12:54;3.83;;;2.67;;
67272;SDS011;54190;49.770;9.250;2023-07-20T09:15:21;4.80;;;2.77;;
67272;SDS011;54190;49.770;9.250;2023-07-20T09:17:47;7.97;;;3.30;;
67272;SDS011;54190;49.770;9.250;2023-07-20T09:20:19;4.73;;;2.63;;
67272;SDS011;54190;49.770;9.250;2023-07-20T09:22:45;4.87;;;2.77;;
67272;SDS011;54190;49.770;9.250;2023-07-20T09:27:45;4.63;;;2.37;;
67272;SDS011;54190;49.770;9.250;2023-07-20T09:30:15;4.20;;;2.23;;
67272;SDS011;54190;49.770;9.250;2023-07-20T09:32:42;4.23;;;2.30;;
67272;SDS011;54190;49.770;9.250;2023-07-20T09:35:19;10.43;;;2.20;;
67272;SDS011;54190;49.770;9.250;2023-07-20T09:37:59;3.80;;;2.07;;
67272;SDS011;54190;49.770;9.250;2023-07-20T09:40:26;4.17;;;1.93;;
67272;SDS011;54190;49.770;9.250;2023-07-20T09:42:52;3.77;;;2.40;;
67272;SDS011;54190;49.770;9.250;2023-07-20T09:45:28;3.60;;;2.40;;
67272;SDS011;54190;49.770;9.250;2023-07-20T09:48:04;4.87;;;2.60;;
67272;SDS011;54190;49.770;9.250;2023-07-20T09:50:32;4.27;;;2.40;;
67272;SDS011;54190;49.770;9.250;2023-07-20T09:52:58;4.67;;;2.50;;
67272;SDS011;54190;49.770;9.250;2023-07-20T09:55:27;4.27;;;2.30;;
67272;SDS011;54190;49.770;9.250;2023-07-20T09:57:54;3.30;;;2.37;;
67272;SDS011;54190;49.770;9.250;2023-07-20T10:00:21;4.50;;;2.60;;
67272;SDS011;54190;49.770;9.250;2023-07-20T10:02:47;3.10;;;2.10;;
67272;SDS011;54190;49.770;9.250;2023-07-20T10:05:16;5.43;;;2.40;;
67272;SDS011;54190;49.770;9.250;2023-07-20T10:07:44;5.83;;;2.50;;
67272;SDS011;54190;49.770;9.250;2023-07-20T10:10:15;4.00;;;2.13;;
67272;SDS011;54190;49.770;9.250;2023-07-20T10:12:42;3.50;;;2.03;;
67272;SDS011;54190;49.770;9.250;2023-07-20T10:15:11;4.10;;;2.60;;
67272;SDS011;54190;49.770;9.250;2023-07-20T10:17:47;4.33;;;2.43;;
67272;SDS011;54190;49.770;9.250;2023-07-20T10:20:24;5.20;;;2.50;;
67272;SDS011;54190;49.770;9.250;2023-07-20T10:22:52;5.40;;;2.47;;
67272;SDS011;54190;49.770;9.250;2023-07-20T10:25:18;3.50;;;2.30;;
67272;SDS011;54190;49.770;9.250;2023-07-20T10:27:47;7.80;;;2.23;;
67272;SDS011;54190;49.770;9.250;2023-07-20T10:30:13;3.60;;;2.43;;
67272;SDS011;54190;49.770;9.250;2023-07-20T10:32:40;4.40;;;2.50;;
67272;SDS011;54190;49.770;9.250;2023-07-20T10:35:12;3.50;;;2.27;;
67272;SDS011;54190;49.770;9.250;2023-07-20T10:37:56;3.47;;;2.17;;
67272;SDS011;54190;49.770;9.250;2023-07-20T10:45:36;6.47;;;2.40;;
67272;SDS011;54190;49.770;9.250;2023-07-20T10:48:13;5.30;;;2.60;;
67272;SDS011;54190;49.770;9.250;2023-07-20T10:50:41;3.03;;;2.00;;
67272;SDS011;54190;49.770;9.250;2023-07-20T10:53:10;5.30;;;3.07;;
67272;SDS011;54190;49.770;9.250;2023-07-20T10:55:37;3.47;;;2.20;;
67272;SDS011;54190;49.770;9.250;2023-07-20T10:58:09;6.43;;;2.20;;
67272;SDS011;54190;49.770;9.250;2023-07-20T11:01:00;7.33;;;2.50;;
67272;SDS011;54190;49.770;9.250;2023-07-20T11:03:30;3.80;;;2.53;;
67272;SDS011;54190;49.770;9.250;2023-07-20T11:05:58;4.63;;;2.53;;
67272;SDS011;54190;49.770;9.250;2023-07-20T11:08:42;4.37;;;2.13;;
67272;SDS011;54190;49.770;9.250;2023-07-20T11:11:21;2.67;;;1.70;;
67272;SDS011;54190;49.770;9.250;2023-07-20T11:13:55;3.30;;;2.33;;
67272;SDS011;54190;49.770;9.250;2023-07-20T11:19:05;4.10;;;2.33;;
67272;SDS011;54190;49.770;9.250;2023-07-20T11:21:38;4.17;;;2.30;;
67272;SDS011;54190;49.770;9.250;2023-07-20T11:24:06;3.57;;;1.83;;
67272;SDS011;54190;49.770;9.250;2023-07-20T11:29:18;3.53;;;2.27;;
67272;SDS011;54190;49.770;9.250;2023-07-20T11:31:46;6.23;;;2.50;;
67272;SDS011;54190;49.770;9.250;2023-07-20T11:34:13;4.20;;;1.93;;
67272;SDS011;54190;49.770;9.250;2023-07-20T11:36:40;2.50;;;1.90;;
67272;SDS011;54190;49.770;9.250;2023-07-20T11:39:11;2.93;;;1.80;;
67272;SDS011;54190;49.770;9.250;2023-07-20T11:41:46;3.30;;;2.10;;
67272;SDS011;54190;49.770;9.250;2023-07-20T11:44:13;2.50;;;1.80;;
67272;SDS011;54190;49.770;9.250;2023-07-20T11:46:40;3.77;;;1.87;;
67272;SDS011;54190;49.770;9.250;2023-07-20T11:49:07;4.53;;;2.10;;
67272;SDS011;54190;49.770;9.250;2023-07-20T11:51:34;3.33;;;2.50;;
67272;SDS011;54190;49.770;9.250;2023-07-20T11:54:01;2.67;;;2.10;;
67272;SDS011;54190;49.770;9.250;2023-07-20T11:56:27;2.60;;;1.90;;
67272;SDS011;54190;49.770;9.250;2023-07-20T11:58:59;2.67;;;1.97;;
67272;SDS011;54190;49.770;9.250;2023-07-20T12:01:27;3.33;;;2.47;;
67272;SDS011;54190;49.770;9.250;2023-07-20T12:04:03;3.50;;;2.10;;
67272;SDS011;54190;49.770;9.250;2023-07-20T12:06:29;3.57;;;1.80;;
67272;SDS011;54190;49.770;9.250;2023-07-20T12:08:59;2.70;;;1.70;;
67272;SDS011;54190;49.770;9.250;2023-07-20T12:11:31;4.13;;;2.13;;
67272;SDS011;54190;49.770;9.250;2023-07-20T12:14:01;3.83;;;2.10;;
67272;SDS011;54190;49.770;9.250;2023-07-20T12:16:28;5.10;;;2.33;;
67272;SDS011;54190;49.770;9.250;2023-07-20T12:19:05;2.97;;;1.80;;
67272;SDS011;54190;49.770;9.250;2023-07-20T12:21:33;3.37;;;2.00;;
67272;SDS011;54190;49.770;9.250;2023-07-20T12:24:02;4.17;;;2.37;;
67272;SDS011;54190;49.770;9.250;2023-07-20T12:26:31;4.53;;;2.47;;
67272;SDS011;54190;49.770;9.250;2023-07-20T12:28:58;2.93;;;2.20;;
67272;SDS011;54190;49.770;9.250;2023-07-20T12:31:24;4.20;;;2.63;;
67272;SDS011;54190;49.770;9.250;2023-07-20T12:33:51;4.90;;;2.83;;
67272;SDS011;54190;49.770;9.250;2023-07-20T12:36:18;4.00;;;2.20;;
67272;SDS011;54190;49.770;9.250;2023-07-20T12:38:44;4.57;;;2.70;;
67272;SDS011;54190;49.770;9.250;2023-07-20T12:41:11;3.23;;;2.40;;
67272;SDS011;54190;49.770;9.250;2023-07-20T12:43:38;3.00;;;2.30;;
67272;SDS011;54190;49.770;9.250;2023-07-20T12:46:05;3.53;;;2.10;;
67272;SDS011;54190;49.770;9.250;2023-07-20T12:48:31;5.47;;;2.67;;
67272;SDS011;54190;49.770;9.250;2023-07-20T12:50:56;4.03;;;2.17;;
67272;SDS011;54190;49.770;9.250;2023-07-20T12:53:22;4.70;;;2.60;;
67272;SDS011;54190;49.770;9.250;2023-07-20T12:55:48;3.00;;;2.03;;
67272;SDS011;54190;49.770;9.250;2023-07-20T12:58:13;2.90;;;2.40;;
67272;SDS011;54190;49.770;9.250;2023-07-20T13:00:39;4.40;;;2.57;;
67272;SDS011;54190;49.770;9.250;2023-07-20T13:03:05;3.07;;;2.27;;
67272;SDS011;54190;49.770;9.250;2023-07-20T13:05:32;3.13;;;2.27;;
67272;SDS011;54190;49.770;9.250;2023-07-20T13:07:58;2.40;;;2.07;;
67272;SDS011;54190;49.770;9.250;2023-07-20T13:10:24;2.93;;;2.50;;
67272;SDS011;54190;49.770;9.250;2023-07-20T13:12:50;7.27;;;2.60;;
67272;SDS011;54190;49.770;9.250;2023-07-20T13:15:16;5.10;;;2.47;;
67272;SDS011;54190;49.770;9.250;2023-07-20T13:17:42;2.60;;;2.10;;
67272;SDS011;54190;49.770;9.250;2023-07-20T13:20:09;2.90;;;2.53;;
67272;SDS011;54190;49.770;9.250;2023-07-20T13:22:39;3.50;;;2.47;;
67272;SDS011;54190;49.770;9.250;2023-07-20T13:25:05;9.70;;;2.40;;
67272;SDS011;54190;49.770;9.250;2023-07-20T13:27:32;3.00;;;2.40;;
67272;SDS011;54190;49.770;9.250;2023-07-20T13:29:58;4.10;;;2.27;;
67272;SDS011;54190;49.770;9.250;2023-07-20T13:32:26;10.80;;;2.47;;
67272;SDS011;54190;49.770;9.250;2023-07-20T13:34:52;4.17;;;2.40;;
67272;SDS011;54190;49.770;9.250;2023-07-20T13:37:18;3.73;;;2.37;;
67272;SDS011;54190;49.770;9.250;2023-07-20T13:39:43;4.13;;;2.20;;
67272;SDS011;54190;49.770;9.250;2023-07-20T13:42:09;3.70;;;2.03;;
67272;SDS011;54190;49.770;9.250;2023-07-20T13:44:37;2.90;;;2.40;;
67272;SDS011;54190;49.770;9.250;2023-07-20T13:47:03;3.27;;;2.40;;
67272;SDS011;54190;49.770;9.250;2023-07-20T13:49:30;3.90;;;2.37;;
67272;SDS011;54190;49.770;9.250;2023-07-20T13:51:56;4.07;;;2.27;;
67272;SDS011;54190;49.770;9.250;2023-07-20T13:54:22;3.33;;;2.20;;
67272;SDS011;54190;49.770;9.250;2023-07-20T13:56:48;3.50;;;2.20;;
67272;SDS011;54190;49.770;9.250;2023-07-20T13:59:14;3.20;;;2.33;;
67272;SDS011;54190;49.770;9.250;2023-07-20T14:01:40;3.13;;;2.40;;
67272;SDS011;54190;49.770;9.250;2023-07-20T14:04:05;2.93;;;2.20;;
67272;SDS011;54190;49.770;9.250;2023-07-20T14:06:32;3.13;;;2.20;;
67272;SDS011;54190;49.770;9.250;2023-07-20T14:08:58;4.63;;;3.00;;
67272;SDS011;54190;49.770;9.250;2023-07-20T14:11:25;4.43;;;2.30;;
67272;SDS011;54190;49.770;9.250;2023-07-20T14:13:52;4.80;;;2.20;;
67272;SDS011;54190;49.770;9.250;2023-07-20T14:16:20;3.00;;;1.97;;
67272;SDS011;54190;49.770;9.250;2023-07-20T14:18:47;2.90;;;2.30;;
67272;SDS011;54190;49.770;9.250;2023-07-20T14:21:14;2.90;;;2.17;;
67272;SDS011;54190;49.770;9.250;2023-07-20T14:23:40;4.37;;;2.40;;
67272;SDS011;54190;49.770;9.250;2023-07-20T14:26:06;4.00;;;2.37;;
67272;SDS011;54190;49.770;9.250;2023-07-20T14:28:32;2.40;;;2.13;;
67272;SDS011;54190;49.770;9.250;2023-07-20T14:30:58;9.80;;;2.17;;
67272;SDS011;54190;49.770;9.250;2023-07-20T14:33:23;5.70;;;2.30;;
67272;SDS011;54190;49.770;9.250;2023-07-20T14:35:49;2.70;;;2.00;;
67272;SDS011;54190;49.770;9.250;2023-07-20T14:38:15;2.60;;;2.10;;
67272;SDS011;54190;49.770;9.250;2023-07-20T14:40:41;6.17;;;2.77;;
67272;SDS011;54190;49.770;9.250;2023-07-20T14:43:06;4.73;;;2.13;;
67272;SDS011;54190;49.770;9.250;2023-07-20T14:45:32;4.23;;;2.03;;
67272;SDS011;54190;49.770;9.250;2023-07-20T14:47:58;2.60;;;2.10;;
67272;SDS011;54190;49.770;9.250;2023-07-20T14:50:24;3.30;;;2.37;;
67272;SDS011;54190;49.770;9.250;2023-07-20T14:52:50;3.43;;;2.20;;
67272;SDS011;54190;49.770;9.250;2023-07-20T14:55:15;3.07;;;1.93;;
67272;SDS011;54190;49.770;9.250;2023-07-20T14:57:42;3.70;;;2.10;;
67272;SDS011;54190;49.770;9.250;2023-07-20T15:00:08;2.60;;;1.73;;
67272;SDS011;54190;49.770;9.250;2023-07-20T15:02:35;2.90;;;2.00;;